EW6950 Weather Reports


time (UTC)temp
C
wind
direction
speed
KPH
gust
KPH
rain 1hr
cm
rain 24hr
cm
rain mn
cm
humidity
%
barometer
mb
20180419171838 25 178 1.6 6.4 0.00 0.00 0.00 37 1024.2
20180419171338 25 175 3.2 8.0 0.00 0.00 0.00 36 1024.1
20180419170839 25 176 3.2 8.0 0.00 0.00 0.00 35 1024.1
20180419170338 25 197 3.2 6.4 0.00 0.00 0.00 36 1024.2
20180419165838 25 153 3.2 6.4 0.00 0.00 0.00 35 1024.2
20180419165338 26 196 3.2 6.4 0.00 0.00 0.00 34 1024.3
20180419164838 26 207 3.2 6.4 0.00 0.00 0.00 32 1024.3
20180419164339 26 185 3.2 8.0 0.00 0.00 0.00 35 1024.3
20180419163838 26 186 3.2 8.0 0.00 0.00 0.00 32 1024.3
20180419163336 26 173 3.2 9.7 0.00 0.00 0.00 32 1024.4
20180419162835 26 178 4.8 9.7 0.00 0.00 0.00 31 1024.3
20180419162334 26 186 4.8 9.7 0.00 0.00 0.00 32 1024.4
20180419161834 26 201 4.8 9.7 0.00 0.00 0.00 31 1024.5
20180419161335 26 178 3.2 6.4 0.00 0.00 0.00 33 1024.5
20180419160834 26 101 3.2 8.0 0.00 0.00 0.00 34 1024.5
20180419160334 26 167 4.8 8.0 0.00 0.00 0.00 35 1024.5
20180419155834 26 147 4.8 9.7 0.00 0.00 0.00 34 1024.5
20180419155335 26 175 4.8 9.7 0.00 0.00 0.00 33 1024.5
20180419154834 26 198 4.8 11.3 0.00 0.00 0.00 33 1024.5
20180419154334 26 153 4.8 11.3 0.00 0.00 0.00 35 1024.5
20180419153833 26 236 4.8 11.3 0.00 0.00 0.00 34 1024.5
20180419153332 27 192 4.8 12.9 0.00 0.00 0.00 36 1024.5
20180419152833 26 192 4.8 11.3 0.00 0.00 0.00 35 1024.6
20180419152332 26 34 3.2 9.7 0.00 0.00 0.00 34 1024.6
20180419151832 27 209 4.8 9.7 0.00 0.00 0.00 34 1024.6
20180419151332 27 188 4.8 12.9 0.00 0.00 0.00 33 1024.6
20180419150832 26 95 4.8 14.5 0.00 0.00 0.00 32 1024.7
20180419150332 27 197 4.8 14.5 0.00 0.00 0.00 35 1024.7
20180419145832 26 132 4.8 14.5 0.00 0.00 0.00 34 1024.7
20180419145332 26 193 4.8 14.5 0.00 0.00 0.00 35 1024.7
20180419144831 26 190 4.8 12.9 0.00 0.00 0.00 37 1024.7
20180419144330 26 188 4.8 12.9 0.00 0.00 0.00 33 1024.7
20180419143830 26 96 4.8 11.3 0.00 0.00 0.00 36 1024.7
20180419143330 26 186 4.8 12.9 0.00 0.00 0.00 35 1024.8
20180419142830 26 191 6.4 14.5 0.00 0.00 0.00 34 1024.8
20180419142330 26 182 8.0 16.1 0.00 0.00 0.00 37 1024.8
20180419141830 26 198 6.4 16.1 0.00 0.00 0.00 36 1024.8
20180419141330 26 242 4.8 12.9 0.00 0.00 0.00 36 1024.9
20180419140830 26 220 6.4 14.5 0.00 0.00 0.00 37 1024.9
20180419140330 26 187 6.4 14.5 0.00 0.00 0.00 36 1025.0
20180419135831 26 195 4.8 14.5 0.00 0.00 0.00 37 1025.2
20180419135330 26 213 4.8 14.5 0.00 0.00 0.00 36 1025.2
20180419134831 26 94 6.4 16.1 0.00 0.00 0.00 37 1025.2
20180419134328 26 130 6.4 16.1 0.00 0.00 0.00 37 1025.3
20180419133829 26 182 4.8 16.1 0.00 0.00 0.00 36 1025.3
20180419133327 26 92 6.4 16.1 0.00 0.00 0.00 37 1025.4
20180419132827 26 150 6.4 14.5 0.00 0.00 0.00 34 1025.5
20180419132328 26 90 6.4 14.5 0.00 0.00 0.00 32 1025.5
20180419131828 26 115 4.8 14.5 0.00 0.00 0.00 36 1025.6
20180419131328 26 235 4.8 11.3 0.00 0.00 0.00 37 1025.5
20180419130825 26 100 4.8 11.3 0.00 0.00 0.00 37 1025.6
20180419130326 26 184 4.8 11.3 0.00 0.00 0.00 38 1025.6
20180419125826 26 183 6.4 14.5 0.00 0.00 0.00 38 1025.6
20180419125325 26 122 8.0 17.7 0.00 0.00 0.00 36 1025.7
20180419124825 26 103 6.4 17.7 0.00 0.00 0.00 37 1025.7
20180419124326 26 163 4.8 11.3 0.00 0.00 0.00 39 1025.7
20180419123826 26 100 4.8 12.9 0.00 0.00 0.00 40 1025.8
20180419123326 26 210 4.8 12.9 0.00 0.00 0.00 39 1025.8
20180419122824 25 134 4.8 11.3 0.00 0.00 0.00 41 1025.8
20180419122323 25 190 6.4 12.9 0.00 0.00 0.00 39 1025.8
20180419121823 25 80 6.4 12.9 0.00 0.00 0.00 40 1025.9
20180419121323 25 183 4.8 11.3 0.00 0.00 0.00 40 1025.9
20180419120824 25 180 4.8 9.7 0.00 0.00 0.00 40 1025.9
20180419120322 25 117 4.8 12.9 0.00 0.00 0.00 40 1026.0
20180419115822 25 172 4.8 12.9 0.00 0.00 0.00 41 1025.9
20180419115322 25 190 4.8 12.9 0.00 0.00 0.00 43 1025.9
20180419114821 25 100 4.8 11.3 0.00 0.00 0.00 42 1025.8
20180419114322 25 80 6.4 14.5 0.00 0.00 0.00 41 1025.9
20180419113822 24 145 4.8 14.5 0.00 0.00 0.00 43 1026.0
20180419113322 24 231 6.4 14.5 0.00 0.00 0.00 44 1026.0
20180419112822 24 215 6.4 14.5 0.00 0.00 0.00 41 1026.1
20180419112322 24 97 4.8 12.9 0.00 0.00 0.00 42 1026.1
20180419111821 23 195 6.4 14.5 0.00 0.00 0.00 43 1026.2
20180419111321 23 188 8.0 16.1 0.00 0.00 0.00 42 1026.2
20180419110822 23 207 6.4 16.1 0.00 0.00 0.00 39 1026.3
20180419110321 25 186 6.4 17.7 0.00 0.00 0.00 38 1026.3
20180419105821 25 105 6.4 17.7 0.00 0.00 0.00 39 1026.3
20180419105321 24 130 6.4 14.5 0.00 0.00 0.00 37 1026.2
20180419104821 25 104 6.4 16.1 0.00 0.00 0.00 35 1026.3
20180419104322 25 101 6.4 16.1 0.00 0.00 0.00 35 1026.3
20180419103821 25 113 6.4 17.7 0.00 0.00 0.00 36 1026.3
20180419103322 25 117 4.8 17.7 0.00 0.00 0.00 40 1026.3
20180419102822 25 105 4.8 16.1 0.00 0.00 0.00 38 1026.4
20180419102321 24 55 4.8 14.5 0.00 0.00 0.00 37 1026.4
20180419101822 24 111 4.8 14.5 0.00 0.00 0.00 40 1026.4
20180419101321 24 101 6.4 14.5 0.00 0.00 0.00 37 1026.4
20180419100821 24 101 6.4 14.5 0.00 0.00 0.00 37 1026.3
20180419100322 24 86 8.0 14.5 0.00 0.00 0.00 38 1026.3
20180419095821 24 114 6.4 14.5 0.00 0.00 0.00 39 1026.4
20180419095322 23 80 6.4 16.1 0.00 0.00 0.00 37 1026.4
20180419094822 23 68 6.4 16.1 0.00 0.00 0.00 39 1026.4
20180419094321 23 86 6.4 14.5 0.00 0.00 0.00 39 1026.4
20180419093819 23 91 6.4 14.5 0.00 0.00 0.00 39 1026.5
20180419093320 23 99 4.8 14.5 0.00 0.00 0.00 40 1026.5
20180419092820 23 96 6.4 19.3 0.00 0.00 0.00 40 1026.5
20180419092318 23 67 8.0 19.3 0.00 0.00 0.00 41 1026.5
20180419091817 22 42 8.0 16.1 0.00 0.00 0.00 41 1026.5
20180419091317 23 43 8.0 17.7 0.00 0.00 0.00 40 1026.6
20180419090815 23 103 8.0 17.7 0.00 0.00 0.00 39 1026.6
20180419090316 23 72 8.0 17.7 0.00 0.00 0.00 40 1026.6
20180419085814 23 93 8.0 17.7 0.00 0.00 0.00 39 1026.6
20180419085313 22 116 6.4 14.5 0.00 0.00 0.00 41 1026.6
20180419084812 22 77 6.4 14.5 0.00 0.00 0.00 43 1026.6
20180419084311 22 27 6.4 14.5 0.00 0.00 0.00 43 1026.6
20180419083811 22 121 6.4 12.9 0.00 0.00 0.00 43 1026.7
20180419083311 22 109 6.4 11.3 0.00 0.00 0.00 43 1026.6
20180419082811 22 85 4.8 11.3 0.00 0.00 0.00 43 1026.7
20180419082311 22 113 4.8 11.3 0.00 0.00 0.00 44 1026.7
20180419081812 21 107 6.4 12.9 0.00 0.00 0.00 44 1026.7
20180419081311 21 98 6.4 12.9 0.00 0.00 0.00 45 1026.8
20180419080812 21 25 6.4 12.9 0.00 0.00 0.00 45 1026.8
20180419080311 21 86 6.4 12.9 0.00 0.00 0.00 46 1026.8
20180419075811 21 87 4.8 12.9 0.00 0.00 0.00 46 1026.7
20180419075311 20 53 4.8 14.5 0.00 0.00 0.00 48 1026.8
20180419074811 20 29 4.8 14.5 0.00 0.00 0.00 47 1026.7
20180419074311 20 66 4.8 12.9 0.00 0.00 0.00 47 1026.7
20180419073811 20 70 4.8 11.3 0.00 0.00 0.00 47 1026.8
20180419073309 20 49 4.8 9.7 0.00 0.00 0.00 48 1026.7
20180419072809 20 54 3.2 9.7 0.00 0.00 0.00 49 1026.7
20180419072310 20 98 3.2 8.0 0.00 0.00 0.00 51 1026.7
20180419071810 20 128 1.6 3.2 0.00 0.00 0.00 54 1026.7
20180419071309 20 128 1.6 4.8 0.00 0.00 0.00 55 1026.7
20180419070809 20 128 1.6 4.8 0.00 0.00 0.00 56 1026.8
20180419070309 19 128 1.6 4.8 0.00 0.00 0.00 58 1026.8
20180419065809 19 128 1.6 4.8 0.00 0.00 0.00 58 1026.8
20180419065309 19 128 3.2 4.8 0.00 0.00 0.00 58 1026.7
20180419064809 18 87 3.2 6.4 0.00 0.00 0.00 57 1026.7
20180419064307 18 42 1.6 6.4 0.00 0.00 0.00 54 1026.7
20180419063807 18 55 1.6 6.4 0.00 0.00 0.00 55 1026.7
20180419063308 17 124 3.2 6.4 0.00 0.00 0.00 56 1026.6
20180419062807 17 80 3.2 8.0 0.00 0.00 0.00 56 1026.6
20180419062307 17 78 3.2 8.0 0.00 0.00 0.00 57 1026.5
20180419061807 17 60 3.2 6.4 0.00 0.00 0.00 58 1026.5
20180419061307 16 49 3.2 8.0 0.00 0.00 0.00 58 1026.5
20180419060807 16 69 3.2 8.0 0.00 0.00 0.00 60 1026.6
20180419060307 16 55 1.6 8.0 0.00 0.00 0.00 61 1026.6
20180419055807 15 28 1.6 4.8 0.00 0.00 0.00 63 1026.6
20180419055306 15 34 1.6 4.8 0.00 0.00 0.00 64 1026.7
20180419054805 14 33 3.2 6.4 0.00 0.00 0.00 65 1026.6
20180419054306 14 26 3.2 8.0 0.00 0.00 0.00 66 1026.6
20180419053805 13 42 3.2 8.0 0.00 0.00 0.00 67 1026.6
20180419053306 13 46 4.8 9.7 0.00 0.00 0.00 69 1026.6
20180419052806 12 51 4.8 9.7 0.00 0.00 0.00 73 1026.5
20180419052306 11 44 4.8 9.7 0.00 0.00 0.00 77 1026.5
20180419051806 10 21 4.8 9.7 0.00 0.00 0.00 82 1026.5
20180419051306 10 30 3.2 6.4 0.00 0.00 0.00 83 1026.5
20180419050802 9 355 3.2 4.8 0.00 0.00 0.00 83 1026.6
20180419050301 9 349 3.2 4.8 0.00 0.00 0.00 83 1026.5
20180419045801 9 0 3.2 6.4 0.00 0.00 0.00 83 1026.5
20180419045301 8 5 3.2 6.4 0.00 0.00 0.00 83 1026.5
20180419044801 8 347 3.2 9.7 0.00 0.00 0.00 83 1026.6
20180419044300 8 338 3.2 9.7 0.00 0.00 0.00 83 1026.6
20180419043801 8 355 4.8 9.7 0.00 0.00 0.00 84 1026.5
20180419043301 8 347 3.2 6.4 0.00 0.00 0.00 85 1026.6
20180419042801 8 342 3.2 8.0 0.00 0.00 0.00 85 1026.6
20180419042301 8 319 3.2 8.0 0.00 0.00 0.00 85 1026.6
20180419041801 8 14 4.8 8.0 0.00 0.00 0.00 85 1026.6
20180419041301 8 320 4.8 9.7 0.00 0.00 0.00 84 1026.6
20180419040800 8 331 4.8 9.7 0.00 0.00 0.00 85 1026.6
20180419040301 8 17 4.8 11.3 0.00 0.00 0.00 85 1026.7
20180419035801 8 20 3.2 11.3 0.00 0.00 0.00 85 1026.7
20180419035258 8 11 3.2 8.0 0.00 0.00 0.00 85 1026.8
20180419034758 8 32 3.2 4.8 0.00 0.00 0.00 84 1026.8
20180419034256 8 34 3.2 4.8 0.00 0.00 0.00 83 1026.9
20180419033756 8 29 1.6 4.8 0.00 0.00 0.00 83 1026.9
20180419033255 8 29 1.6 4.8 0.00 0.00 0.00 82 1026.9
20180419032755 8 29 0.0 4.8 0.00 0.00 0.00 82 1026.9
20180419032255 9 29 0.0 1.6 0.00 0.00 0.00 81 1026.9
20180419031754 9 29 0.0 3.2 0.00 0.00 0.00 81 1026.9
20180419031255 9 29 1.6 3.2 0.00 0.00 0.00 81 1026.9
20180419030753 10 30 1.6 4.8 0.00 0.00 0.00 81 1026.9
20180419030252 10 30 3.2 6.4 0.00 0.00 0.00 81 1026.8
20180419025752 10 28 3.2 6.4 0.00 0.00 0.00 81 1026.8
20180419025253 10 10 3.2 6.4 0.00 0.00 0.00 82 1026.9
20180419024752 10 15 3.2 8.0 0.00 0.00 0.00 82 1026.8
20180419024253 10 5 4.8 8.0 0.00 0.00 0.00 83 1026.8
20180419023752 9 26 4.8 8.0 0.00 0.00 0.00 83 1026.9
20180419023252 9 5 4.8 8.0 0.00 0.00 0.00 83 1027.0
20180419022752 9 33 4.8 8.0 0.00 0.00 0.00 82 1027.0
20180419022253 10 22 3.2 8.0 0.00 0.00 0.00 81 1027.0
20180419021753 10 34 3.2 6.4 0.00 0.00 0.00 81 1026.9
20180419021253 10 40 4.8 6.4 0.00 0.00 0.00 81 1026.9
20180419020752 10 24 4.8 6.4 0.00 0.00 0.00 81 1027.0
20180419020253 10 16 3.2 6.4 0.00 0.00 0.00 81 1026.9
20180419015753 10 20 3.2 6.4 0.00 0.00 0.00 81 1026.9
20180419015252 10 24 4.8 8.0 0.00 0.00 0.00 81 1026.9
20180419014750 10 31 4.8 8.0 0.00 0.00 0.00 81 1026.9
20180419014250 10 23 4.8 6.4 0.00 0.00 0.00 80 1026.9
20180419013751 10 29 4.8 6.4 0.00 0.00 0.00 80 1026.9
20180419013249 10 34 4.8 6.4 0.00 0.00 0.00 79 1026.9
20180419012747 10 29 3.2 6.4 0.00 0.00 0.00 79 1026.9
20180419012247 10 28 3.2 6.4 0.00 0.00 0.00 79 1026.9
20180419011743 10 34 4.8 6.4 0.00 0.00 0.00 79 1027.0
20180419011242 10 34 3.2 6.4 0.00 0.00 0.00 79 1027.0
20180419010742 10 34 3.2 6.4 0.00 0.00 0.00 79 1027.0
20180419010243 10 18 3.2 8.0 0.00 0.00 0.00 79 1027.1
20180419005742 10 17 3.2 8.0 0.00 0.00 0.00 80 1027.0
20180419005242 10 0 3.2 4.8 0.00 0.00 0.00 79 1027.1
20180419004742 10 5 3.2 4.8 0.00 0.00 0.00 78 1027.2
20180419004242 10 18 3.2 4.8 0.00 0.00 0.00 76 1027.2
20180419003742 10 19 3.2 4.8 0.00 0.00 0.00 75 1027.2
20180419003242 11 19 3.2 4.8 0.00 0.00 0.00 75 1027.2
20180419002742 11 19 3.2 4.8 0.00 0.00 0.00 74 1027.2
20180419002242 11 19 1.6 4.8 0.00 0.00 0.00 74 1027.3
20180419001742 11 19 0.0 3.2 0.00 0.00 0.00 72 1027.3
20180419001242 12 19 0.0 1.6 0.00 0.00 0.00 71 1027.3
20180419000742 12 19 0.0 1.6 0.00 0.00 0.00 70 1027.3
20180419000242 12 19 0.0 1.6 0.00 0.00 0.00 67 1027.3
20180418235742 13 19 0.0 1.6 0.00 0.00 0.00 66 1027.3
20180418235242 13 19 1.6 3.2 0.00 0.00 0.00 65 1027.3
20180418234742 13 19 1.6 6.4 0.00 0.00 0.00 65 1027.3
20180418234242 13 19 3.2 6.4 0.00 0.00 0.00 64 1027.3
20180418233742 13 19 3.2 6.4 0.00 0.00 0.00 64 1027.2
20180418233242 13 5 3.2 4.8 0.00 0.00 0.00 63 1027.3
20180418232743 14 5 3.2 4.8 0.00 0.00 0.00 62 1027.3
20180418232242 15 14 1.6 4.8 0.00 0.00 0.00 60 1027.3
20180418231742 15 35 1.6 3.2 0.00 0.00 0.00 58 1027.3
20180418231242 16 35 3.2 4.8 0.00 0.00 0.00 56 1027.3
20180418230740 16 35 3.2 8.0 0.00 0.00 0.00 55 1027.4
20180418230240 16 35 3.2 8.0 0.00 0.00 0.00 55 1027.4
20180418225740 16 46 4.8 8.0 0.00 0.00 0.00 55 1027.3
20180418225240 16 42 3.2 8.0 0.00 0.00 0.00 55 1027.3
20180418224740 16 44 3.2 8.0 0.00 0.00 0.00 54 1027.3
20180418224240 16 45 3.2 8.0 0.00 0.00 0.00 54 1027.4
20180418223740 17 44 4.8 12.9 0.00 0.00 0.00 54 1027.4
20180418223240 17 34 4.8 12.9 0.00 0.00 0.00 53 1027.4
20180418222738 17 34 4.8 12.9 0.00 0.00 0.00 53 1027.4
20180418222238 17 32 4.8 12.9 0.00 0.00 0.00 53 1027.4
20180418221738 17 34 4.8 8.0 0.00 0.00 0.00 53 1027.4
20180418221238 17 34 3.2 8.0 0.00 0.00 0.00 53 1027.5
20180418220738 17 34 3.2 8.0 0.00 0.00 0.00 53 1027.4
20180418220236 17 33 3.2 8.0 0.00 0.00 0.00 53 1027.4
20180418215735 17 35 3.2 8.0 0.00 0.00 0.00 53 1027.5
20180418215235 17 34 3.2 6.4 0.00 0.00 0.00 52 1027.5
20180418214735 17 32 3.2 6.4 0.00 0.00 0.00 52 1027.5
20180418214235 17 36 3.2 6.4 0.00 0.00 0.00 52 1027.5
20180418213735 17 36 3.2 6.4 0.00 0.00 0.00 52 1027.5
20180418213235 17 37 3.2 8.0 0.00 0.00 0.00 52 1027.5
20180418212733 17 37 3.2 8.0 0.00 0.00 0.00 52 1027.5
20180418212232 17 33 3.2 6.4 0.00 0.00 0.00 52 1027.5
20180418211733 17 36 3.2 6.4 0.00 0.00 0.00 52 1027.5
20180418211234 17 29 3.2 6.4 0.00 0.00 0.00 52 1027.5
20180418210733 17 43 3.2 6.4 0.00 0.00 0.00 52 1027.5
20180418210233 17 34 3.2 8.0 0.00 0.00 0.00 51 1027.5
20180418205733 17 34 3.2 8.0 0.00 0.00 0.00 51 1027.5
20180418205233 17 35 3.2 8.0 0.00 0.00 0.00 52 1027.5
20180418204733 17 23 3.2 8.0 0.00 0.00 0.00 53 1027.5
20180418204231 17 50 3.2 6.4 0.00 0.00 0.00 54 1027.5
20180418203729 17 48 3.2 8.0 0.00 0.00 0.00 56 1027.5
20180418203229 16 53 3.2 8.0 0.00 0.00 0.00 58 1027.5
20180418202729 16 5 1.6 8.0 0.00 0.00 0.00 60 1027.5
20180418202227 15 20 1.6 8.0 0.00 0.00 0.00 62 1027.5
20180418201727 15 34 1.6 4.8 0.00 0.00 0.00 62 1027.5
20180418201225 15 30 1.6 4.8 0.00 0.00 0.00 62 1027.5
20180418200725 16 30 3.2 6.4 0.00 0.00 0.00 62 1027.5
20180418200224 16 30 3.2 6.4 0.00 0.00 0.00 61 1027.5
20180418195725 16 30 3.2 4.8 0.00 0.00 0.00 61 1027.5
20180418195225 16 30 3.2 4.8 0.00 0.00 0.00 60 1027.6
20180418194724 16 30 3.2 4.8 0.00 0.00 0.00 60 1027.6
20180418194225 16 30 3.2 4.8 0.00 0.00 0.00 60 1027.6
20180418193725 16 30 1.6 4.8 0.00 0.00 0.00 60 1027.6
20180418193225 16 30 3.2 4.8 0.00 0.00 0.00 59 1027.7
20180418192723 16 30 3.2 4.8 0.00 0.00 0.00 59 1027.7
20180418192222 16 30 3.2 4.8 0.00 0.00 0.00 59 1027.6
20180418191722 16 30 1.6 4.8 0.00 0.00 0.00 58 1027.6
20180418191223 17 30 3.2 4.8 0.00 0.00 0.00 57 1027.6
20180418190722 17 38 3.2 4.8 0.00 0.00 0.00 54 1027.5
20180418190223 18 40 3.2 4.8 0.00 0.00 0.00 52 1027.5
20180418185723 19 40 3.2 6.4 0.00 0.00 0.00 49 1027.4
20180418185223 19 43 3.2 6.4 0.00 0.00 0.00 48 1027.4
20180418184722 19 65 3.2 4.8 0.00 0.00 0.00 48 1027.5
20180418184223 20 65 3.2 6.4 0.00 0.00 0.00 47 1027.4
20180418183723 20 65 1.6 6.4 0.00 0.00 0.00 46 1027.4
20180418183223 20 65 1.6 3.2 0.00 0.00 0.00 45 1027.4
20180418182723 21 65 1.6 3.2 0.00 0.00 0.00 44 1027.4
20180418182222 21 65 1.6 4.8 0.00 0.00 0.00 42 1027.4
20180418181724 22 65 3.2 6.4 0.00 0.00 0.00 40 1027.3
20180418181223 22 65 3.2 8.0 0.00 0.00 0.00 37 1027.3
20180418180722 22 45 3.2 8.0 0.00 0.00 0.00 36 1027.3
20180418180223 22 75 3.2 6.4 0.00 0.00 0.00 36 1027.3
20180418175722 22 92 3.2 8.0 0.00 0.00 0.00 36 1027.3
20180418175223 23 59 4.8 12.9 0.00 0.00 0.00 36 1027.2
20180418174722 23 54 4.8 12.9 0.00 0.00 0.00 35 1027.2
20180418174223 23 55 3.2 11.3 0.00 0.00 0.00 36 1027.3
20180418173723 23 59 3.2 6.4 0.00 0.00 0.00 35 1027.3
20180418173222 23 40 4.8 9.7 0.00 0.00 0.00 34 1027.3
20180418172721 23 51 6.4 14.5 0.00 0.00 0.00 32 1027.4
20180418172221 23 49 6.4 17.7 0.00 0.00 0.00 31 1027.4